Pretty Hana — DSQJ5 — position and weather

sailwx.info

Track history (hours):
 
Tides and Currents Weather Stations Pressure Air Temp Water Temp Dewpoint Dewpoint Depression Visibility Wind Speed Wind Dir Waves Ship Positions

Pretty Hana

Last reported at 2014-Jul-23 13:33 UTC. Time now 2014-Jul-23 13:38 UTC.
Position N 34°59' E 139°35'.

Length 65 m; draft 4.5 m.

Type: Tanker. MMSI: 441600000.

Date/timePositionNaut miles runAvg speedWind from/ knotsBaromVisibWave heightAir tempDewpointWater temp
2014-Jul-23 13:33N 34°59' E 139°35'  
2014-Jul-15 14:17N 34°01' E 134°59'710.0
2014-Jul-15 13:33N 34°08' E 134°59'8 8.0
2014-Jul-15 12:31N 34°17' E 134°58'6 6.0
2014-Jul-15 11:33N 34°22' E 135°01'8 8.3
2014-Jul-15 10:33N 34°27' E 135°09'1010.0
2014-Jul-15 09:32N 34°33' E 135°19'5 5.2
2014-Jul-15 08:29N 34°32' E 135°25'0 0.0
2014-Jul-15 05:33N 34°31' E 135°25'3 0.6
2014-Jul-15 01:23N 34°34' E 135°24'0 0.0
2014-Jul-15 00:29N 34°34' E 135°24'0 0.0
2014-Jul-14 22:23N 34°34' E 135°24'0 0.0
2014-Jul-14 21:26N 34°34' E 135°24'6 7.3
2014-Jul-14 20:33N 34°35' E 135°16'1211.8
2014-Jul-14 19:33N 34°37' E 135°02'  
Track history (hours):
 
Tides and Currents Weather Stations Pressure Air Temp Water Temp Dewpoint Dewpoint Depression Visibility Wind Speed Wind Dir Waves Ship Positions

Pretty Hana

Last reported at 2014-Jul-23 13:33 UTC. Time now 2014-Jul-23 13:38 UTC.
Position N 34°59' E 139°35'.

Length 65 m; draft 4.5 m.

Type: Tanker. MMSI: 441600000.

Date/timePositionNaut miles runAvg speedWind from/ knotsBaromVisibWave heightAir tempDewpointWater temp
2014-Jul-23 13:33N 34°59' E 139°35'  
2014-Jul-15 14:17N 34°01' E 134°59'710.0
2014-Jul-15 13:33N 34°08' E 134°59'8 8.0
2014-Jul-15 12:31N 34°17' E 134°58'6 6.0
2014-Jul-15 11:33N 34°22' E 135°01'8 8.3
2014-Jul-15 10:33N 34°27' E 135°09'1010.0
2014-Jul-15 09:32N 34°33' E 135°19'5 5.2
2014-Jul-15 08:29N 34°32' E 135°25'0 0.0
2014-Jul-15 05:33N 34°31' E 135°25'3 0.6
2014-Jul-15 01:23N 34°34' E 135°24'0 0.0
2014-Jul-15 00:29N 34°34' E 135°24'0 0.0
2014-Jul-14 22:23N 34°34' E 135°24'0 0.0
2014-Jul-14 21:26N 34°34' E 135°24'6 7.3
2014-Jul-14 20:33N 34°35' E 135°16'1211.8
2014-Jul-14 19:33N 34°37' E 135°02'  

Dump ship's entire track history